Terminal Aerodrome Forecast
Issued by NWS

Home | Current Version | Previous Version | Text Only | Print | Product List | Glossary On
Versions: 1 2 3 4 5 6 7 8 9 10 11 12 13 14 15 16 17 18 19 20 21
000
FTUS45 KBOU 290956 AAB
TAFAPA
TAF AMD
KAPA 290956Z 2910/3006 22005KT P6SM FEW140 SCT220
     FM291400 VRB04KT P6SM FEW220
     FM291700 03006KT P6SM FEW090 SCT150 SCT220
     FM291900 04012KT P6SM SCT090 BKN140 PROB30 2921/2924 VRB20G30KT
      -TSRA SCT090CB=

USA.gov is the U.S. government's official web portal to all federal, state and local government web resources and services.